Time;durP1;ratioP1;P1;durP2;ratioP2;P2;SDS_P1;SDS_P2;PMS_P1;PMS_P2;Temp;Humidity;BMP_temperature;BMP_pressure;BME280_temperature;BME280_humidity;BME280_pressure;Samples;Min_cycle;Max_cycle;Signal;HPM_P1;HPM_P2
2022/10/19 00:00:49;;;;;;;;;6.00;6.00;;;;;21.78;56.19;101838.22;5106863;27;45238;-47
2022/10/19 00:03:15;;;;;;;;;7.00;5.25;;;;;21.77;56.31;101826.00;5108112;27;45311;-48
2022/10/19 00:05:40;;;;;;;;;4.75;4.75;;;;;21.77;56.44;101823.34;5111157;27;45331;-45
2022/10/19 00:08:06;;;;;;;;;5.25;4.50;;;;;21.77;56.22;101820.72;5104222;27;45415;-46
2022/10/19 00:10:31;;;;;;;;;4.00;4.00;;;;;21.77;56.63;101824.19;5099452;27;45328;-41
2022/10/19 00:12:58;;;;;;;;;7.25;6.00;;;;;21.77;56.24;101818.06;5102535;27;45573;-48
2022/10/19 00:15:23;;;;;;;;;5.00;5.00;;;;;21.77;56.25;101821.56;5098796;27;45402;-42
2022/10/19 00:17:48;;;;;;;;;5.25;4.00;;;;;21.78;56.55;101819.75;5102417;27;45514;-52
2022/10/19 00:20:14;;;;;;;;;4.75;4.25;;;;;21.78;56.52;101822.41;5106248;27;45505;-42
2022/10/19 00:22:39;;;;;;;;;5.00;5.00;;;;;21.77;56.10;101813.63;5106011;27;45509;-46
2022/10/19 00:25:05;;;;;;;;;5.00;5.00;;;;;21.76;56.25;101811.94;5099128;27;46288;-47
2022/10/19 00:27:30;;;;;;;;;4.00;4.00;;;;;21.77;56.40;101812.78;5098678;27;45401;-46
2022/10/19 00:29:56;;;;;;;;;5.50;5.00;;;;;21.78;56.13;101806.56;5099466;27;45741;-47
2022/10/19 00:32:21;;;;;;;;;5.00;5.00;;;;;21.77;56.20;101802.25;5102308;27;44948;-49
2022/10/19 00:34:46;;;;;;;;;5.00;5.00;;;;;21.77;56.20;101804.88;5097572;27;46035;-45
2022/10/19 00:37:12;;;;;;;;;5.25;4.00;;;;;21.77;56.48;101803.09;5099585;27;45328;-52
2022/10/19 00:39:37;;;;;;;;;8.25;5.00;;;;;21.76;56.20;101789.97;5100905;27;45274;-49
2022/10/19 00:42:03;;;;;;;;;4.50;4.50;;;;;21.76;56.15;101779.41;5104349;27;45523;-45
2022/10/19 00:44:28;;;;;;;;;7.50;5.50;;;;;21.76;56.21;101777.63;5119018;27;45318;-43
2022/10/19 00:47:02;;;;;;;;;5.00;5.00;;;;;21.76;56.04;101776.78;5116452;27;44793;-45
2022/10/19 00:49:36;;;;;;;;;4.00;4.00;;;;;21.77;56.24;101773.22;5102601;27;44735;-43
2022/10/19 00:52:05;;;;;;;;;4.75;4.75;;;;;21.76;55.86;101779.41;5098607;27;45455;-43
2022/10/19 00:54:35;;;;;;;;;4.00;4.00;;;;;21.77;56.28;101773.22;5099130;27;46275;-45
2022/10/19 00:57:02;;;;;;;;;4.00;4.00;;;;;21.76;55.95;101771.50;5105627;27;45494;-48
2022/10/19 00:59:30;;;;;;;;;4.25;4.25;;;;;21.76;56.12;101769.72;5102587;27;45211;-49
2022/10/19 01:01:57;;;;;;;;;4.50;4.00;;;;;21.76;55.95;101771.50;5098784;27;45225;-46
2022/10/19 01:04:25;;;;;;;;;7.00;4.75;;;;;21.76;56.18;101768.88;5098127;27;45332;-43
2022/10/19 01:06:52;;;;;;;;;5.50;4.50;;;;;21.75;56.06;101765.34;5099070;27;45772;-52
2022/10/19 01:09:18;;;;;;;;;5.00;5.00;;;;;21.75;55.86;101767.16;5099542;27;45326;-50
2022/10/19 01:12:21;;;;;;;;;5.00;5.00;;;;;21.76;56.15;101766.22;5101677;27;45622;-53
2022/10/19 01:14:58;;;;;;;;;4.00;4.00;;;;;21.75;56.13;101762.72;5102066;27;47577;-47
2022/10/19 01:17:38;;;;;;;;;4.25;4.25;;;;;21.75;56.13;101756.59;5110432;27;45312;-45
2022/10/19 01:20:12;;;;;;;;;6.50;5.00;;;;;21.76;55.88;101766.22;5116540;27;44772;-45
2022/10/19 01:22:52;;;;;;;;;4.00;4.00;;;;;21.76;55.91;101763.59;5102844;27;45309;-42
2022/10/19 01:25:30;;;;;;;;;6.00;4.75;;;;;21.75;55.88;101764.50;5102547;27;46658;-44
2022/10/19 01:28:14;;;;;;;;;7.00;7.00;;;;;21.75;56.05;101764.50;5101107;27;45184;-48
2022/10/19 01:30:55;;;;;;;;;5.00;4.00;;;;;21.75;56.11;101759.22;5104572;27;45283;-47
2022/10/19 01:33:26;;;;;;;;;5.00;5.00;;;;;21.74;55.96;101752.25;5102368;27;45420;-44
2022/10/19 01:36:00;;;;;;;;;5.75;5.00;;;;;21.74;56.01;101755.72;5101810;27;45349;-42
2022/10/19 01:38:45;;;;;;;;;6.00;6.00;;;;;21.74;56.16;101749.59;5110011;27;45344;-45
2022/10/19 01:41:20;;;;;;;;;5.00;5.00;;;;;21.74;55.90;101753.09;5104550;27;45451;-42
2022/10/19 01:44:03;;;;;;;;;6.00;4.00;;;;;21.74;56.40;101750.44;5100543;27;45216;-42
2022/10/19 01:46:40;;;;;;;;;5.00;5.00;;;;;21.74;55.90;101749.59;5098957;27;46235;-41
2022/10/19 01:49:16;;;;;;;;;3.00;3.00;;;;;21.74;56.07;101752.25;5099612;27;45333;-42
2022/10/19 01:51:48;;;;;;;;;5.25;3.75;;;;;21.74;56.02;101746.97;5105600;27;45322;-42
2022/10/19 01:54:16;;;;;;;;;5.00;5.00;;;;;21.73;55.97;101746.09;5120199;27;45168;-42
2022/10/19 01:56:45;;;;;;;;;5.75;4.75;;;;;21.74;56.01;101739.06;5113332;27;46203;-41
2022/10/19 01:59:12;;;;;;;;;5.00;5.00;;;;;21.74;56.00;101736.41;5114461;27;45835;-52
2022/10/19 02:01:43;;;;;;;;;5.00;4.00;;;;;21.74;56.00;101731.13;5109053;27;45264;-50
2022/10/19 02:04:11;;;;;;;;;4.75;4.75;;;;;21.75;55.87;101727.56;5105640;27;45471;-45
2022/10/19 02:06:37;;;;;;;;;5.00;5.00;;;;;21.73;56.02;101721.50;5120243;27;45105;-47
2022/10/19 02:09:02;;;;;;;;;4.00;4.00;;;;;21.74;55.94;101720.56;5104740;27;45326;-52
2022/10/19 02:11:30;;;;;;;;;4.00;4.00;;;;;21.74;55.95;101715.31;5101679;27;45343;-49
2022/10/19 02:14:00;;;;;;;;;4.00;4.00;;;;;21.73;55.72;101714.44;5107845;27;45424;-47
2022/10/19 02:16:33;;;;;;;;;5.25;4.50;;;;;21.74;55.92;101717.94;5100764;27;46125;-44
2022/10/19 02:19:02;;;;;;;;;5.25;4.00;;;;;21.73;55.83;101709.16;5096989;27;45857;-44
2022/10/19 02:21:27;;;;;;;;;4.25;4.25;;;;;21.73;56.03;101709.16;5099585;27;45329;-42
2022/10/19 02:23:53;;;;;;;;;6.00;5.00;;;;;21.73;56.07;101698.59;5100542;27;45214;-42
2022/10/19 02:26:19;;;;;;;;;5.75;5.00;;;;;21.73;55.80;101697.75;5096759;27;45368;-41
2022/10/19 02:28:45;;;;;;;;;4.00;4.00;;;;;21.73;55.90;101693.31;5096638;27;45735;-42
2022/10/19 02:31:11;;;;;;;;;4.00;4.00;;;;;21.73;55.90;101687.19;5096660;27;45764;-48
2022/10/19 02:33:37;;;;;;;;;4.00;4.00;;;;;21.73;55.82;101692.47;5097167;27;45337;-47
2022/10/19 02:36:02;;;;;;;;;2.00;1.00;;;;;21.73;55.82;101681.94;5096924;27;47565;-46
2022/10/19 02:38:28;;;;;;;;;4.25;4.25;;;;;21.73;55.90;101681.94;5095871;27;45664;-42
2022/10/19 02:41:06;;;;;;;;;4.00;4.00;;;;;21.73;55.76;101679.28;5096071;27;45385;-46
2022/10/19 02:43:34;;;;;;;;;4.00;4.00;;;;;21.72;55.74;101677.56;5097763;27;45453;-42
2022/10/19 02:46:06;;;;;;;;;4.00;4.00;;;;;21.72;55.69;101670.50;5100495;27;45307;-45
2022/10/19 02:48:35;;;;;;;;;6.25;5.00;;;;;21.72;55.87;101672.28;5100237;27;45345;-41
2022/10/19 02:51:00;;;;;;;;;4.00;4.00;;;;;21.71;55.50;101662.66;5104936;27;45291;-42
2022/10/19 02:53:25;;;;;;;;;4.75;4.75;;;;;21.72;56.11;101661.75;5119661;27;44918;-46
2022/10/19 02:55:51;;;;;;;;;3.00;3.00;;;;;21.72;55.66;101656.47;5105154;27;64848;-42
2022/10/19 02:58:16;;;;;;;;;3.50;3.50;;;;;21.73;55.97;101652.91;5106358;27;45835;-42
2022/10/19 03:00:42;;;;;;;;;5.50;3.75;;;;;21.72;55.86;101654.66;5106342;27;45238;-43
2022/10/19 03:03:07;;;;;;;;;5.25;5.25;;;;;21.72;55.95;101649.38;5107986;27;45760;-43
2022/10/19 03:05:32;;;;;;;;;5.00;5.00;;;;;21.72;55.71;101648.56;5108561;27;46004;-43
2022/10/19 03:07:57;;;;;;;;;5.25;5.25;;;;;21.72;55.69;101646.75;5111011;27;45850;-44
2022/10/19 03:10:23;;;;;;;;;3.50;3.00;;;;;21.72;55.67;101649.38;5102655;27;45705;-42
2022/10/19 03:12:48;;;;;;;;;4.25;4.25;;;;;21.72;55.89;101638.84;5100191;27;45372;-44
2022/10/19 03:15:15;;;;;;;;;0.75;0.00;;;;;21.73;55.69;101650.25;5101049;27;45353;-41
2022/10/19 03:17:40;;;;;;;;;5.50;4.75;;;;;21.73;55.83;101639.72;5101537;27;45365;-41
2022/10/19 03:20:07;;;;;;;;;4.25;4.25;;;;;21.72;55.66;101641.47;5105719;27;45285;-42
2022/10/19 03:22:33;;;;;;;;;3.25;3.25;;;;;21.73;55.58;101639.72;5110622;27;45285;-49
2022/10/19 03:24:58;;;;;;;;;4.00;4.00;;;;;21.71;55.79;101637.16;5118344;27;45177;-50
2022/10/19 03:27:23;;;;;;;;;5.00;4.00;;;;;21.71;55.84;101638.94;5113915;27;58492;-48
2022/10/19 03:29:48;;;;;;;;;4.00;3.25;;;;;21.72;55.67;101633.56;5111289;27;45251;-48
2022/10/19 03:32:14;;;;;;;;;4.00;4.00;;;;;21.72;55.76;101632.72;5116626;27;45528;-51
2022/10/19 03:34:39;;;;;;;;;7.00;7.00;;;;;21.71;55.67;101631.88;5116548;27;51151;-46
2022/10/19 03:37:07;;;;;;;;;10.75;9.75;;;;;21.72;55.74;101625.66;5107865;27;51308;-43
2022/10/19 03:39:33;;;;;;;;;10.00;10.00;;;;;21.71;55.63;101625.72;5113882;27;45337;-42
2022/10/19 03:41:58;;;;;;;;;12.75;11.50;;;;;21.70;55.75;101629.28;5106965;27;45492;-44
2022/10/19 03:44:23;;;;;;;;;15.50;13.75;;;;;21.67;55.85;101619.75;5101601;27;45474;-45
2022/10/19 03:46:49;;;;;;;;;12.75;12.75;;;;;21.66;55.71;101619.84;5099600;27;45478;-46
2022/10/19 03:49:14;;;;;;;;;11.50;11.00;;;;;21.61;55.71;101620.91;5099483;27;45523;-50
2022/10/19 03:51:39;;;;;;;;;12.00;12.00;;;;;21.61;55.58;101620.91;5099193;27;46956;-45
2022/10/19 03:54:07;;;;;;;;;10.00;9.50;;;;;21.60;55.88;101613.06;5100462;27;49099;-46
2022/10/19 03:56:34;;;;;;;;;10.00;9.75;;;;;21.58;55.57;101612.25;5100557;27;45923;-48
2022/10/19 03:59:01;;;;;;;;;8.75;8.00;;;;;21.57;55.95;101611.38;5100611;27;45224;-43
2022/10/19 04:01:39;;;;;;;;;9.00;9.00;;;;;21.56;55.77;101612.31;5102619;27;45172;-42
2022/10/19 04:04:16;;;;;;;;;8.75;7.50;;;;;21.56;55.82;101607.03;5098918;27;46197;-45
2022/10/19 04:06:43;;;;;;;;;7.75;7.75;;;;;21.55;55.94;101610.59;5103306;27;45852;-41
2022/10/19 04:09:11;;;;;;;;;10.25;9.00;;;;;21.54;55.69;101606.28;5112296;27;45326;-42
2022/10/19 04:11:37;;;;;;;;;9.00;9.00;;;;;21.54;55.71;101608.03;5112501;27;45271;-47
2022/10/19 04:14:02;;;;;;;;;11.00;9.75;;;;;21.53;55.91;101615.09;5102870;27;45990;-49
2022/10/19 04:16:29;;;;;;;;;10.00;10.00;;;;;21.52;55.87;101615.16;5113519;27;45456;-45
2022/10/19 04:18:55;;;;;;;;;9.50;8.75;;;;;21.51;56.20;101614.31;5119282;27;44757;-41
2022/10/19 04:21:35;;;;;;;;;12.25;11.00;;;;;21.52;55.96;101610.75;5117455;27;45572;-41
2022/10/19 04:24:09;;;;;;;;;16.00;16.00;;;;;21.52;55.88;101609.88;5108283;27;45274;-41
2022/10/19 04:26:42;;;;;;;;;16.50;16.50;;;;;21.52;56.02;101608.13;5116878;27;45576;-42
2022/10/19 04:29:11;;;;;;;;;31.50;31.00;;;;;21.52;55.77;101602.84;5101496;27;45439;-41
2022/10/19 04:31:37;;;;;;;;;26.25;24.75;;;;;21.52;56.06;101609.88;5100200;27;45339;-42
2022/10/19 04:34:03;;;;;;;;;28.25;28.25;;;;;21.50;56.12;101606.50;5099191;27;46321;-42
2022/10/19 04:36:28;;;;;;;;;30.00;27.75;;;;;21.50;56.19;101611.75;5102843;27;45443;-45
2022/10/19 04:38:54;;;;;;;;;28.25;25.25;;;;;21.49;56.04;101600.34;5102518;27;45512;-41
2022/10/19 04:41:20;;;;;;;;;32.75;31.00;;;;;21.51;55.96;101602.91;5104602;27;45519;-44
2022/10/19 04:43:46;;;;;;;;;42.50;37.00;;;;;21.51;56.07;101608.16;5111990;27;45403;-47
2022/10/19 04:46:16;;;;;;;;;37.50;34.50;;;;;21.52;56.03;101604.59;5111311;27;45438;-49
2022/10/19 04:48:43;;;;;;;;;43.00;36.75;;;;;21.52;56.01;101605.47;5104604;27;45163;-44
2022/10/19 04:51:09;;;;;;;;;41.00;37.00;;;;;21.51;56.06;101597.63;5101190;27;45274;-42
2022/10/19 04:53:36;;;;;;;;;35.25;31.00;;;;;21.51;56.27;101598.50;5100210;27;47774;-42
2022/10/19 04:56:12;;;;;;;;;31.00;27.25;;;;;21.53;56.31;101586.09;5098709;27;45436;-45
2022/10/19 04:58:38;;;;;;;;;25.00;24.00;;;;;21.55;56.51;101586.84;5098305;27;45287;-43
2022/10/19 05:01:08;;;;;;;;;22.25;22.25;;;;;21.58;56.30;101573.53;5096907;27;45360;-46
2022/10/19 05:03:33;;;;;;;;;23.00;23.00;;;;;21.60;56.58;101565.59;5097736;27;47062;-43
2022/10/19 05:05:59;;;;;;;;;20.25;19.00;;;;;21.61;56.95;101562.88;5098199;27;45420;-42
2022/10/19 05:08:24;;;;;;;;;19.00;17.00;;;;;21.62;56.99;101561.94;5098644;27;46171;-43
2022/10/19 05:10:49;;;;;;;;;19.00;18.25;;;;;21.62;57.24;101550.50;5098075;27;50875;-56
2022/10/19 05:13:14;;;;;;;;;17.00;17.00;;;;;21.62;57.20;101556.66;5097500;27;60349;-41
2022/10/19 05:15:40;;;;;;;;;19.00;18.25;;;;;21.61;57.33;101549.69;5097728;27;45697;-40
2022/10/19 05:18:05;;;;;;;;;17.00;17.00;;;;;21.61;57.37;101548.81;5100438;27;45444;-42
2022/10/19 05:20:30;;;;;;;;;16.25;16.25;;;;;21.59;57.29;101554.16;5097931;27;46266;-44
2022/10/19 05:22:56;;;;;;;;;16.50;14.25;;;;;21.57;57.66;101553.34;5101863;27;53742;-40
2022/10/19 05:25:21;;;;;;;;;13.50;13.50;;;;;21.56;57.50;101559.53;5105195;27;45304;-41
2022/10/19 05:27:51;;;;;;;;;14.00;12.25;;;;;21.52;57.50;101551.84;5100165;27;45399;-41
2022/10/19 05:30:17;;;;;;;;;13.25;12.50;;;;;21.50;57.36;101559.84;5098047;27;45250;-40
2022/10/19 05:32:43;;;;;;;;;14.25;12.00;;;;;21.47;57.72;101550.31;5097396;27;47312;-42
2022/10/19 05:35:08;;;;;;;;;13.50;11.75;;;;;21.46;57.41;101542.47;5096788;27;45720;-41
2022/10/19 05:37:33;;;;;;;;;9.00;7.00;;;;;21.46;57.69;101542.47;5097645;27;45848;-40
2022/10/19 05:39:59;;;;;;;;;13.00;11.00;;;;;21.43;56.91;101543.47;5099132;27;48372;-42
2022/10/19 05:42:24;;;;;;;;;11.50;9.50;;;;;21.44;57.49;101528.50;5099274;27;46201;-40
2022/10/19 05:44:49;;;;;;;;;14.00;11.67;;;;;21.43;57.47;101521.53;5100065;27;56486;-41
2022/10/19 05:47:14;;;;;;;;;14.00;11.25;;;;;21.44;57.38;101523.25;5099827;27;45298;-41
2022/10/19 05:49:40;;;;;;;;;10.50;9.00;;;;;21.44;57.40;101523.25;5098150;27;45372;-43
2022/10/19 05:52:05;;;;;;;;;11.25;10.25;;;;;21.43;57.33;101521.53;5107993;27;47025;-41
2022/10/19 05:54:30;;;;;;;;;10.75;10.75;;;;;21.44;57.45;101523.25;5115423;27;55490;-43
2022/10/19 05:56:56;;;;;;;;;10.25;8.25;;;;;21.44;57.32;101523.25;5103407;27;45735;-41
2022/10/19 05:59:22;;;;;;;;;8.75;7.50;;;;;21.45;57.35;101524.91;5114649;27;45433;-43
2022/10/19 06:01:48;;;;;;;;;9.50;8.25;;;;;21.44;57.30;101523.25;5106367;27;47328;-41
2022/10/19 06:04:14;;;;;;;;;8.75;8.75;;;;;21.45;57.17;101519.66;5104426;27;45238;-42
2022/10/19 06:06:41;;;;;;;;;10.50;10.50;;;;;21.44;56.93;101524.09;5097561;27;45321;-43
2022/10/19 06:09:07;;;;;;;;;8.00;8.00;;;;;21.45;57.17;101519.66;5099829;27;45506;-40
2022/10/19 06:11:36;;;;;;;;;7.25;7.25;;;;;21.44;57.25;101539.06;5106216;27;45708;-44
2022/10/19 06:14:04;;;;;;;;;9.50;9.00;;;;;21.44;56.98;101539.06;5104661;27;45845;-45
2022/10/19 06:16:32;;;;;;;;;9.00;7.00;;;;;21.42;57.16;101533.84;5104966;27;45289;-43
2022/10/19 06:18:58;;;;;;;;;7.50;7.50;;;;;21.43;57.00;101534.72;5102880;27;45325;-40
2022/10/19 06:21:29;;;;;;;;;11.00;8.00;;;;;21.43;56.97;101534.72;5096715;27;46880;-42
2022/10/19 06:24:00;;;;;;;;;8.00;7.00;;;;;21.42;57.27;101530.38;5096829;27;45341;-42
2022/10/19 06:26:26;;;;;;;;;9.75;8.00;;;;;21.40;56.75;101524.31;5097510;27;45282;-42
2022/10/19 06:28:56;;;;;;;;;7.75;7.75;;;;;21.39;57.01;101530.50;5099437;27;45849;-43
2022/10/19 06:31:22;;;;;;;;;7.25;6.00;;;;;21.40;57.05;101526.94;5093737;27;46910;-40
2022/10/19 06:33:47;;;;;;;;;8.75;8.75;;;;;21.38;56.74;101528.78;5096902;27;45424;-41
2022/10/19 06:36:16;;;;;;;;;8.00;8.00;;;;;21.37;56.94;101537.63;5098449;27;45434;-44
2022/10/19 06:38:42;;;;;;;;;8.25;6.00;;;;;21.37;57.22;101535.00;5102033;27;45349;-43
2022/10/19 06:41:07;;;;;;;;;8.00;7.00;;;;;21.36;56.76;101535.91;5102821;27;45386;-42
2022/10/19 06:43:34;;;;;;;;;6.75;6.75;;;;;21.34;56.96;101525.47;5097190;27;45314;-44
2022/10/19 06:46:07;;;;;;;;;7.75;7.25;;;;;21.35;56.89;101526.28;5097276;27;45348;-43
2022/10/19 06:48:32;;;;;;;;;5.25;5.25;;;;;21.37;57.03;101521.81;5097343;27;45392;-42
2022/10/19 06:51:01;;;;;;;;;9.00;9.00;;;;;21.41;56.78;101523.38;5096844;27;46229;-41
2022/10/19 06:53:27;;;;;;;;;8.00;7.75;;;;;21.42;56.88;101514.53;5095423;27;45275;-39
2022/10/19 06:55:57;;;;;;;;;8.00;8.00;;;;;21.44;56.75;101520.59;5096764;27;45405;-40
2022/10/19 06:58:24;;;;;;;;;8.25;7.50;;;;;21.46;56.66;101524.88;5079417;27;45421;-40
2022/10/19 07:00:57;;;;;;;;;8.75;7.50;;;;;21.50;56.39;101532.63;5103738;27;46926;-40
2022/10/19 07:03:24;;;;;;;;;9.50;7.25;;;;;21.50;56.33;101522.94;5104598;27;45281;-41
2022/10/19 07:05:58;;;;;;;;;11.00;8.50;;;;;21.51;56.29;101519.38;5097534;27;45306;-41
2022/10/19 07:08:24;;;;;;;;;7.25;7.25;;;;;21.53;56.51;101528.06;5096796;27;46145;-42
2022/10/19 07:10:51;;;;;;;;;10.00;7.25;;;;;21.51;56.47;101508.81;5098297;27;46160;-42
2022/10/19 07:13:17;;;;;;;;;5.75;5.75;;;;;21.53;56.49;101514.00;5099655;27;45242;-41
2022/10/19 07:15:42;;;;;;;;;7.75;7.00;;;;;21.55;56.21;101514.78;5100533;27;45337;-41
2022/10/19 07:18:07;;;;;;;;;7.00;7.00;;;;;21.55;56.47;101505.09;5104027;27;45587;-39
2022/10/19 07:20:33;;;;;;;;;8.75;7.25;;;;;21.56;56.25;101512.06;5101560;27;56356;-42
2022/10/19 07:22:58;;;;;;;;;6.75;6.25;;;;;21.57;56.22;101500.59;5097337;27;45247;-49
2022/10/19 07:25:23;;;;;;;;;8.50;7.50;;;;;21.59;56.26;101493.50;5098369;27;45401;-46
2022/10/19 07:27:49;;;;;;;;;7.50;7.50;;;;;21.59;56.04;101490.84;5098619;27;45365;-42
2022/10/19 07:30:14;;;;;;;;;8.00;7.00;;;;;21.61;56.17;101493.41;5103371;27;45325;-45
2022/10/19 07:32:39;;;;;;;;;8.00;7.00;;;;;21.60;56.29;101491.72;5114855;27;50002;-45
2022/10/19 07:35:05;;;;;;;;;8.25;7.50;;;;;21.61;56.07;101502.19;5112611;27;44714;-40
2022/10/19 07:37:30;;;;;;;;;7.00;6.50;;;;;21.62;56.14;101509.19;5111858;27;45546;-43
2022/10/19 07:39:56;;;;;;;;;6.50;6.50;;;;;21.61;55.82;101515.38;5103288;27;46279;-43
2022/10/19 07:42:21;;;;;;;;;6.75;6.75;;;;;21.60;56.06;101505.75;5107485;27;50680;-45
2022/10/19 07:44:46;;;;;;;;;10.25;7.00;;;;;21.60;55.91;101503.13;5111120;27;46064;-46
2022/10/19 07:47:12;;;;;;;;;7.50;7.50;;;;;21.60;56.03;101504.91;5106956;27;45337;-44
2022/10/19 07:49:37;;;;;;;;;6.75;6.75;;;;;21.62;56.03;101500.41;5105269;27;45697;-45
2022/10/19 07:52:02;;;;;;;;;9.00;6.00;;;;;21.62;55.95;101508.31;5101027;27;45436;-44
2022/10/19 07:54:27;;;;;;;;;7.75;6.50;;;;;21.61;56.04;101503.97;5106968;27;45290;-46
2022/10/19 07:56:53;;;;;;;;;7.75;7.75;;;;;21.59;55.71;101492.66;5111632;27;45211;-43
2022/10/19 07:59:19;;;;;;;;;6.00;5.25;;;;;21.59;55.96;101511.97;5102893;27;46409;-43
2022/10/19 08:01:46;;;;;;;;;8.25;7.25;;;;;21.61;56.05;101509.22;5099815;27;45341;-45
2022/10/19 08:04:11;;;;;;;;;9.25;8.25;;;;;21.62;55.64;101505.66;5099858;27;45168;-43
2022/10/19 08:06:37;;;;;;;;;8.75;7.00;;;;;21.62;55.77;101501.25;5101287;27;45161;-42
2022/10/19 08:09:03;;;;;;;;;6.25;6.25;;;;;21.61;55.89;101493.41;5101631;27;47058;-42
2022/10/19 08:11:31;;;;;;;;;6.25;6.25;;;;;21.61;55.75;101490.78;5106885;27;45821;-41
2022/10/19 08:13:58;;;;;;;;;10.00;8.50;;;;;21.61;55.79;101503.97;5100175;27;45431;-42
2022/10/19 08:16:37;;;;;;;;;6.25;6.00;;;;;21.60;55.77;101497.00;5077971;27;45307;-42
2022/10/19 08:19:08;;;;;;;;;8.00;7.75;;;;;21.61;55.67;101501.31;5080486;27;46382;-43
2022/10/19 08:21:35;;;;;;;;;8.25;8.00;;;;;21.61;55.71;101498.69;5082769;27;45769;-41
2022/10/19 08:24:01;;;;;;;;;10.50;8.00;;;;;21.61;55.48;101498.69;5083616;27;45315;-43
2022/10/19 08:26:32;;;;;;;;;7.25;7.25;;;;;21.60;55.57;101489.09;5077631;27;45521;-43
2022/10/19 08:29:01;;;;;;;;;8.50;7.00;;;;;21.59;55.77;101488.22;5078004;27;45496;-43
2022/10/19 08:31:27;;;;;;;;;7.50;6.75;;;;;21.60;55.62;101491.72;5079627;27;45336;-44
2022/10/19 08:33:52;;;;;;;;;9.75;8.75;;;;;21.58;55.70;101485.63;5083276;27;45271;-43
2022/10/19 09:45:43;;;;;;;;;10.25;8.00;;;;;21.47;55.87;101444.81;5076841;28;45369;-49
2022/10/19 09:48:30;;;;;;;;;8.00;8.00;;;;;21.46;56.06;101443.13;5076876;28;46037;-54
2022/10/19 09:51:01;;;;;;;;;9.00;8.00;;;;;21.45;56.10;101445.81;5080391;28;45382;-54
2022/10/19 09:53:28;;;;;;;;;11.25;9.75;;;;;21.45;56.18;101445.81;5085659;27;45309;-53
2022/10/19 09:56:05;;;;;;;;;9.25;9.25;;;;;21.45;56.36;101443.16;5093992;27;45256;-54
2022/10/19 09:58:31;;;;;;;;;9.75;9.25;;;;;21.43;55.96;101434.50;5088839;27;45479;-50
2022/10/19 10:00:57;;;;;;;;;9.75;7.50;;;;;21.44;56.31;101436.22;5085679;27;45475;-55
2022/10/19 10:03:25;;;;;;;;;8.00;7.00;;;;;21.44;56.08;101430.94;5089272;27;44918;-54
2022/10/19 10:05:51;;;;;;;;;8.00;7.25;;;;;21.44;56.14;101429.16;5081826;27;45710;-55
2022/10/19 10:08:20;;;;;;;;;7.00;7.00;;;;;21.47;56.14;101433.41;5083931;28;45760;-56
2022/10/19 10:10:52;;;;;;;;;9.00;8.50;;;;;21.47;56.24;101423.72;5088981;27;45218;-54
2022/10/19 10:13:22;;;;;;;;;9.50;9.50;;;;;21.47;56.38;101428.13;5082089;27;45932;-51
2022/10/19 10:15:53;;;;;;;;;11.75;10.50;;;;;21.47;56.16;101425.50;5078870;28;45412;-55
2022/10/19 10:18:18;;;;;;;;;10.75;9.00;;;;;21.46;56.32;101418.50;5079809;27;45364;-52
2022/10/19 10:21:03;;;;;;;;;10.25;9.00;;;;;21.47;56.58;101410.53;5083529;27;45432;-54
2022/10/19 10:23:34;;;;;;;;;9.75;7.75;;;;;21.50;56.18;101411.31;5096920;27;45634;-54
2022/10/19 10:26:01;;;;;;;;;10.75;9.25;;;;;21.49;56.53;101414.88;5095698;27;46386;-54
2022/10/19 10:28:28;;;;;;;;;12.00;11.00;;;;;21.49;56.66;101409.63;5093795;27;45411;-53
2022/10/19 10:31:04;;;;;;;;;12.00;8.25;;;;;21.51;56.43;101405.09;5100917;27;44665;-53
2022/10/19 10:33:33;;;;;;;;;9.75;9.75;;;;;21.49;56.65;101386.72;5098398;28;45390;-55
2022/10/19 10:36:10;;;;;;;;;9.25;9.25;;;;;21.55;56.67;101388.19;5091760;27;45312;-53
2022/10/19 10:38:44;;;;;;;;;8.75;8.75;;;;;21.57;56.69;101388.97;5091806;27;45419;-50
2022/10/19 10:41:19;;;;;;;;;8.00;7.75;;;;;21.59;56.54;101381.88;5098209;27;44771;-53
2022/10/19 10:44:05;;;;;;;;;9.00;9.00;;;;;21.62;56.55;101384.31;5079407;27;45401;-52
2022/10/19 10:46:41;;;;;;;;;10.00;9.25;;;;;21.64;56.29;101394.81;5076455;27;46466;-52
2022/10/19 10:49:20;;;;;;;;;11.25;9.25;;;;;21.64;56.09;101382.47;5075809;27;45861;-53
2022/10/19 10:51:51;;;;;;;;;8.75;8.00;;;;;21.64;56.06;101371.06;5066260;27;45242;-55
2022/10/19 10:54:26;;;;;;;;;10.75;9.00;;;;;21.67;56.07;101378.81;5055413;28;45397;-54
2022/10/19 10:57:11;;;;;;;;;14.00;10.00;;;;;21.68;56.17;101362.06;5055453;28;46379;-55
2022/10/19 11:00:11;;;;;;;;;10.50;10.50;;;;;21.70;56.27;101360.19;5056364;28;45808;-53
2022/10/19 11:02:50;;;;;;;;;10.00;8.25;;;;;21.70;56.00;101362.84;5052721;28;45362;-54
2022/10/19 11:05:30;;;;;;;;;9.00;9.00;;;;;21.72;56.02;101360.97;5054396;28;45472;-52
2022/10/19 11:08:33;;;;;;;;;11.25;9.25;;;;;21.75;56.23;101355.53;5060238;28;46142;-53
2022/10/19 11:11:30;;;;;;;;;9.00;9.00;;;;;21.75;56.12;101352.91;5036572;28;45311;-55
2022/10/19 11:14:03;;;;;;;;;10.75;9.00;;;;;21.75;56.06;101337.91;5062785;28;45326;-55
2022/10/19 11:16:38;;;;;;;;;10.25;10.25;;;;;21.79;55.59;101343.88;5082054;28;44749;-55
2022/10/19 11:19:16;;;;;;;;;8.50;8.50;;;;;21.78;55.88;101332.47;5058029;28;45347;-52
2022/10/19 11:22:03;;;;;;;;;12.00;9.75;;;;;21.80;55.72;101329.75;5060376;28;45265;-52
2022/10/19 11:24:50;;;;;;;;;10.00;8.00;;;;;21.81;55.85;101315.63;5058965;28;45400;-50
2022/10/19 11:27:15;;;;;;;;;9.00;9.00;;;;;21.82;55.63;101317.34;5059106;28;45416;-51
2022/10/19 11:30:10;;;;;;;;;8.00;8.00;;;;;21.83;55.70;101308.50;5057929;28;47224;-51
2022/10/19 11:33:00;;;;;;;;;10.50;10.50;;;;;21.83;55.72;101284.75;5035370;28;45809;-52
2022/10/19 11:35:35;;;;;;;;;9.00;7.50;;;;;21.85;55.75;101285.53;5058838;28;45227;-52
2022/10/19 11:38:26;;;;;;;;;11.75;10.00;;;;;21.86;55.92;101276.66;5059102;28;45187;-51
2022/10/19 11:41:13;;;;;;;;;7.50;7.00;;;;;21.87;55.78;101270.47;5062740;28;45559;-51
2022/10/19 11:44:00;;;;;;;;;9.00;7.25;;;;;21.86;55.63;101265.25;5061917;28;45452;-53
2022/10/19 11:46:58;;;;;;;;;11.25;10.25;;;;;21.88;55.91;101277.41;5078332;28;45298;-51
2022/10/19 11:49:52;;;;;;;;;10.00;10.00;;;;;21.90;55.63;101274.72;5092617;27;45345;-51
2022/10/19 11:52:36;;;;;;;;;7.50;7.50;;;;;21.92;55.56;101273.69;5056969;28;46563;-52
2022/10/19 11:55:10;;;;;;;;;8.00;7.50;;;;;21.92;55.53;101257.84;5077711;27;45858;-54
2022/10/19 11:58:01;;;;;;;;;9.00;9.00;;;;;21.95;55.57;101250.72;5078391;27;45414;-51
2022/10/19 12:00:37;;;;;;;;;11.50;10.50;;;;;21.92;55.59;101243.81;5078961;27;45489;-51
2022/10/19 12:03:29;;;;;;;;;10.00;9.00;;;;;21.92;55.27;101234.09;5077741;27;47082;-53
2022/10/19 12:06:21;;;;;;;;;12.50;8.00;;;;;21.94;55.34;101239.28;5078842;27;45879;-49
2022/10/19 12:08:58;;;;;;;;;11.00;10.25;;;;;21.92;55.26;101227.97;5079231;27;45240;-53
2022/10/19 12:11:48;;;;;;;;;9.00;9.00;;;;;21.92;55.49;101231.47;5079841;27;45458;-53
2022/10/19 12:14:21;;;;;;;;;8.00;7.25;;;;;21.92;55.14;101238.53;5093189;28;46926;-51
2022/10/19 12:16:52;;;;;;;;;10.25;8.25;;;;;21.92;55.42;101244.66;5106050;27;45109;-53
2022/10/19 12:19:23;;;;;;;;;8.75;8.25;;;;;21.92;55.32;101244.66;5103899;27;45337;-51
2022/10/19 12:21:52;;;;;;;;;13.00;11.00;;;;;21.92;55.45;101234.09;5096266;28;45344;-54
2022/10/19 12:24:22;;;;;;;;;8.75;8.75;;;;;21.92;55.38;101227.97;5094554;27;45221;-52
2022/10/19 12:26:50;;;;;;;;;8.75;8.25;;;;;21.91;55.28;101229.75;5079825;27;45408;-53
2022/10/19 12:29:22;;;;;;;;;12.00;10.00;;;;;21.91;55.29;101227.13;5094196;27;44719;-53
2022/10/19 12:31:51;;;;;;;;;9.50;9.50;;;;;21.90;55.23;101229.84;5102709;27;44806;-53
2022/10/19 12:34:34;;;;;;;;;9.50;8.50;;;;;21.93;55.14;101241.09;5078569;27;45432;-54
2022/10/19 12:37:12;;;;;;;;;10.50;9.25;;;;;21.90;55.24;101235.97;5077095;27;45400;-55
2022/10/19 12:39:54;;;;;;;;;7.75;7.50;;;;;21.91;55.43;101235.03;5078493;28;45377;-52
2022/10/19 12:42:32;;;;;;;;;7.50;7.00;;;;;21.91;55.20;101232.41;5079443;27;45780;-54
2022/10/19 12:45:19;;;;;;;;;8.50;8.50;;;;;21.90;55.37;101228.06;5078836;27;46291;-55